sensor_id;sensor_type;location;lat;lon;timestamp;pressure;altitude;pressure_sealevel;temperature;humidity
6833;BME280;3454;42.654;23.378;2022-09-09T00:09:21;94636.84;;;19.65;89.77
6833;BME280;3454;42.654;23.378;2022-09-09T00:12:00;94636.09;;;19.50;91.56
6833;BME280;3454;42.654;23.378;2022-09-09T00:14:38;94634.34;;;19.51;92.08
6833;BME280;3454;42.654;23.378;2022-09-09T00:17:42;94659.94;;;19.73;90.79
6833;BME280;3454;42.654;23.378;2022-09-09T00:22:41;94654.94;;;19.72;91.10
6833;BME280;3454;42.654;23.378;2022-09-09T00:25:28;94635.00;;;19.59;91.95
6833;BME280;3454;42.654;23.378;2022-09-09T00:27:55;94636.78;;;19.59;92.72
6833;BME280;3454;42.654;23.378;2022-09-09T00:30:26;94624.22;;;19.49;93.02
6833;BME280;3454;42.654;23.378;2022-09-09T00:33:01;94633.91;;;19.47;92.82
6833;BME280;3454;42.654;23.378;2022-09-09T00:35:35;94633.47;;;19.44;92.34
6833;BME280;3454;42.654;23.378;2022-09-09T00:38:23;94623.09;;;19.37;92.92
6833;BME280;3454;42.654;23.378;2022-09-09T00:41:00;94624.78;;;19.30;93.27
6833;BME280;3454;42.654;23.378;2022-09-09T00:43:32;94624.09;;;19.21;93.26
6833;BME280;3454;42.654;23.378;2022-09-09T00:46:26;94602.28;;;19.03;94.07
6833;BME280;3454;42.654;23.378;2022-09-09T00:49:21;94597.69;;;18.98;94.05
6833;BME280;3454;42.654;23.378;2022-09-09T00:57:35;94627.63;;;18.85;93.60
6833;BME280;3454;42.654;23.378;2022-09-09T01:00:33;94623.59;;;18.76;94.39
6833;BME280;3454;42.654;23.378;2022-09-09T01:11:27;94626.16;;;18.76;94.32
6833;BME280;3454;42.654;23.378;2022-09-09T01:14:16;94621.09;;;18.68;94.32
6833;BME280;3454;42.654;23.378;2022-09-09T01:16:45;94628.94;;;18.74;94.17
6833;BME280;3454;42.654;23.378;2022-09-09T01:19:20;94642.44;;;18.76;93.79
6833;BME280;3454;42.654;23.378;2022-09-09T01:21:59;94624.31;;;18.70;94.44
6833;BME280;3454;42.654;23.378;2022-09-09T01:24:45;94640.00;;;18.75;93.92
6833;BME280;3454;42.654;23.378;2022-09-09T01:27:19;94632.28;;;18.75;94.26
6833;BME280;3454;42.654;23.378;2022-09-09T01:29:46;94648.44;;;18.83;93.24
6833;BME280;3454;42.654;23.378;2022-09-09T01:32:41;94617.53;;;18.69;95.13
6833;BME280;3454;42.654;23.378;2022-09-09T01:37:56;94620.59;;;18.58;96.01
6833;BME280;3454;42.654;23.378;2022-09-09T01:40:21;94651.63;;;18.71;94.34
6833;BME280;3454;42.654;23.378;2022-09-09T01:42:47;94645.09;;;18.68;95.08
6833;BME280;3454;42.654;23.378;2022-09-09T01:45:13;94654.25;;;18.56;94.89
6833;BME280;3454;42.654;23.378;2022-09-09T01:47:38;94635.31;;;18.64;96.21
6833;BME280;3454;42.654;23.378;2022-09-09T01:50:05;94654.41;;;18.69;94.63
6833;BME280;3454;42.654;23.378;2022-09-09T01:52:35;94674.00;;;18.85;93.49
6833;BME280;3454;42.654;23.378;2022-09-09T01:55:01;94680.06;;;18.92;92.83
6833;BME280;3454;42.654;23.378;2022-09-09T01:57:55;94661.59;;;18.74;94.59
6833;BME280;3454;42.654;23.378;2022-09-09T02:00:15;94656.97;;;18.84;95.36
6833;BME280;3454;42.654;23.378;2022-09-09T02:05:44;94662.03;;;18.77;94.81
6833;BME280;3454;42.654;23.378;2022-09-09T02:11:13;94673.66;;;18.88;93.34
6833;BME280;3454;42.654;23.378;2022-09-09T02:13:40;94674.91;;;18.92;93.17
6833;BME280;3454;42.654;23.378;2022-09-09T02:16:31;94659.25;;;18.93;94.81
6833;BME280;3454;42.654;23.378;2022-09-09T02:19:13;94695.22;;;19.01;91.97
6833;BME280;3454;42.654;23.378;2022-09-09T02:21:42;94668.84;;;18.85;92.20
6833;BME280;3454;42.654;23.378;2022-09-09T02:24:10;94646.34;;;18.72;93.43
6833;BME280;3454;42.654;23.378;2022-09-09T02:26:41;94613.06;;;18.56;95.42
6833;BME280;3454;42.654;23.378;2022-09-09T02:29:15;94633.47;;;18.58;94.77
6833;BME280;3454;42.654;23.378;2022-09-09T02:31:45;94629.56;;;18.47;95.37
6833;BME280;3454;42.654;23.378;2022-09-09T02:34:13;94654.25;;;18.56;94.31
6833;BME280;3454;42.654;23.378;2022-09-09T02:36:40;94652.53;;;18.49;93.85
6833;BME280;3454;42.654;23.378;2022-09-09T02:39:08;94638.34;;;18.38;94.97
6833;BME280;3454;42.654;23.378;2022-09-09T02:41:40;94642.22;;;18.34;95.25
6833;BME280;3454;42.654;23.378;2022-09-09T02:44:16;94632.28;;;18.31;96.31
6833;BME280;3454;42.654;23.378;2022-09-09T02:46:58;94631.56;;;18.37;96.56
6833;BME280;3454;42.654;23.378;2022-09-09T02:52:08;94639.19;;;18.30;97.61
6833;BME280;3454;42.654;23.378;2022-09-09T02:54:38;94627.59;;;18.20;99.39
6833;BME280;3454;42.654;23.378;2022-09-09T02:57:26;94625.06;;;17.97;100.00
6833;BME280;3454;42.654;23.378;2022-09-09T02:59:53;94627.63;;;17.97;100.00
6833;BME280;3454;42.654;23.378;2022-09-09T03:02:18;94630.19;;;17.83;100.00
6833;BME280;3454;42.654;23.378;2022-09-09T03:04:44;94628.22;;;17.85;100.00
6833;BME280;3454;42.654;23.378;2022-09-09T03:07:16;94638.81;;;18.04;100.00
6833;BME280;3454;42.654;23.378;2022-09-09T03:09:42;94638.72;;;17.98;100.00
6833;BME280;3454;42.654;23.378;2022-09-09T03:12:08;94642.06;;;17.84;100.00
6833;BME280;3454;42.654;23.378;2022-09-09T03:14:33;94641.34;;;17.75;100.00
6833;BME280;3454;42.654;23.378;2022-09-09T03:16:58;94645.31;;;17.78;100.00
6833;BME280;3454;42.654;23.378;2022-09-09T03:19:26;94651.63;;;17.90;100.00
6833;BME280;3454;42.654;23.378;2022-09-09T03:21:53;94655.16;;;17.74;100.00
6833;BME280;3454;42.654;23.378;2022-09-09T03:24:19;94642.75;;;17.78;100.00
6833;BME280;3454;42.654;23.378;2022-09-09T03:26:45;94646.41;;;17.83;100.00
6833;BME280;3454;42.654;23.378;2022-09-09T03:29:14;94644.72;;;17.90;100.00
6833;BME280;3454;42.654;23.378;2022-09-09T03:31:41;94652.19;;;17.85;100.00
6833;BME280;3454;42.654;23.378;2022-09-09T03:34:08;94643.84;;;17.98;100.00
6833;BME280;3454;42.654;23.378;2022-09-09T03:36:33;94651.91;;;17.80;100.00
6833;BME280;3454;42.654;23.378;2022-09-09T03:38:59;94658.03;;;17.79;100.00
6833;BME280;3454;42.654;23.378;2022-09-09T03:41:25;94657.16;;;17.87;100.00
6833;BME280;3454;42.654;23.378;2022-09-09T03:43:51;94658.47;;;17.83;100.00
6833;BME280;3454;42.654;23.378;2022-09-09T03:46:18;94657.25;;;17.93;100.00
6833;BME280;3454;42.654;23.378;2022-09-09T03:48:52;94653.38;;;17.97;100.00
6833;BME280;3454;42.654;23.378;2022-09-09T03:51:18;94672.03;;;18.28;100.00
6833;BME280;3454;42.654;23.378;2022-09-09T03:53:44;94666.34;;;18.18;100.00
6833;BME280;3454;42.654;23.378;2022-09-09T03:56:15;94655.16;;;18.11;100.00
6833;BME280;3454;42.654;23.378;2022-09-09T03:58:44;94673.00;;;18.13;100.00
6833;BME280;3454;42.654;23.378;2022-09-09T04:01:12;94657.97;;;18.02;100.00
6833;BME280;3454;42.654;23.378;2022-09-09T04:03:43;94670.16;;;18.08;100.00
6833;BME280;3454;42.654;23.378;2022-09-09T04:06:11;94668.50;;;17.92;100.00
6833;BME280;3454;42.654;23.378;2022-09-09T04:08:38;94673.13;;;17.97;100.00
6833;BME280;3454;42.654;23.378;2022-09-09T04:11:04;94675.47;;;18.06;100.00
6833;BME280;3454;42.654;23.378;2022-09-09T04:13:35;94682.31;;;18.14;100.00
6833;BME280;3454;42.654;23.378;2022-09-09T04:16:03;94681.97;;;18.17;100.00
6833;BME280;3454;42.654;23.378;2022-09-09T04:18:29;94694.41;;;18.42;100.00
6833;BME280;3454;42.654;23.378;2022-09-09T04:20:55;94681.09;;;18.39;100.00
6833;BME280;3454;42.654;23.378;2022-09-09T04:23:27;94664.94;;;18.16;100.00
6833;BME280;3454;42.654;23.378;2022-09-09T04:25:58;94681.00;;;18.32;100.00
6833;BME280;3454;42.654;23.378;2022-09-09T04:28:25;94686.44;;;18.37;100.00
6833;BME280;3454;42.654;23.378;2022-09-09T04:30:51;94684.75;;;18.30;100.00
6833;BME280;3454;42.654;23.378;2022-09-09T04:33:17;94679.75;;;18.28;100.00
6833;BME280;3454;42.654;23.378;2022-09-09T04:35:47;94680.13;;;18.25;100.00
6833;BME280;3454;42.654;23.378;2022-09-09T04:38:14;94682.16;;;18.30;100.00
6833;BME280;3454;42.654;23.378;2022-09-09T04:40:46;94669.63;;;18.12;100.00
6833;BME280;3454;42.654;23.378;2022-09-09T04:43:12;94675.75;;;18.11;100.00
6833;BME280;3454;42.654;23.378;2022-09-09T04:45:39;94673.69;;;18.07;100.00
6833;BME280;3454;42.654;23.378;2022-09-09T04:48:06;94693.69;;;18.19;100.00
6833;BME280;3454;42.654;23.378;2022-09-09T04:50:32;94704.94;;;18.18;100.00
6833;BME280;3454;42.654;23.378;2022-09-09T04:53:01;94712.66;;;18.18;100.00
6833;BME280;3454;42.654;23.378;2022-09-09T04:55:27;94706.00;;;18.09;100.00
6833;BME280;3454;42.654;23.378;2022-09-09T04:57:52;94693.22;;;18.01;100.00
6833;BME280;3454;42.654;23.378;2022-09-09T05:00:19;94695.09;;;17.85;100.00
6833;BME280;3454;42.654;23.378;2022-09-09T05:02:44;94669.28;;;17.78;100.00
6833;BME280;3454;42.654;23.378;2022-09-09T05:05:10;94679.50;;;17.86;100.00
6833;BME280;3454;42.654;23.378;2022-09-09T05:07:36;94690.06;;;17.91;100.00
6833;BME280;3454;42.654;23.378;2022-09-09T05:10:02;94689.03;;;18.00;100.00
6833;BME280;3454;42.654;23.378;2022-09-09T05:12:30;94693.25;;;18.16;100.00
6833;BME280;3454;42.654;23.378;2022-09-09T05:14:56;94671.22;;;18.13;100.00
6833;BME280;3454;42.654;23.378;2022-09-09T05:17:22;94677.00;;;18.15;100.00
6833;BME280;3454;42.654;23.378;2022-09-09T05:19:47;94686.84;;;18.26;100.00
6833;BME280;3454;42.654;23.378;2022-09-09T05:22:13;94720.69;;;18.23;100.00
6833;BME280;3454;42.654;23.378;2022-09-09T05:24:43;94713.84;;;18.30;100.00
6833;BME280;3454;42.654;23.378;2022-09-09T05:27:09;94710.03;;;18.41;99.28
6833;BME280;3454;42.654;23.378;2022-09-09T05:29:37;94700.88;;;18.38;99.77
6833;BME280;3454;42.654;23.378;2022-09-09T05:32:04;94692.81;;;18.41;100.00
6833;BME280;3454;42.654;23.378;2022-09-09T05:34:29;94728.38;;;18.61;98.27
6833;BME280;3454;42.654;23.378;2022-09-09T05:36:55;94722.63;;;18.73;97.49
6833;BME280;3454;42.654;23.378;2022-09-09T05:39:21;94718.38;;;18.80;97.89
6833;BME280;3454;42.654;23.378;2022-09-09T05:41:46;94715.06;;;18.72;97.73
6833;BME280;3454;42.654;23.378;2022-09-09T05:44:12;94722.63;;;18.88;97.28
6833;BME280;3454;42.654;23.378;2022-09-09T05:46:38;94727.50;;;18.97;96.67
6833;BME280;3454;42.654;23.378;2022-09-09T05:49:04;94762.47;;;19.21;93.92
6833;BME280;3454;42.654;23.378;2022-09-09T05:51:31;94767.91;;;19.11;93.36
6833;BME280;3454;42.654;23.378;2022-09-09T05:53:56;94769.59;;;19.19;92.99
6833;BME280;3454;42.654;23.378;2022-09-09T05:56:27;94775.75;;;19.18;91.64
6833;BME280;3454;42.654;23.378;2022-09-09T05:58:54;94787.63;;;19.19;90.08
6833;BME280;3454;42.654;23.378;2022-09-09T06:01:28;94797.94;;;19.19;89.54
6833;BME280;3454;42.654;23.378;2022-09-09T06:03:54;94798.31;;;19.31;89.11
6833;BME280;3454;42.654;23.378;2022-09-09T06:06:29;94792.03;;;19.33;89.25
6833;BME280;3454;42.654;23.378;2022-09-09T06:08:56;94806.31;;;19.36;89.52
6833;BME280;3454;42.654;23.378;2022-09-09T06:11:30;94805.97;;;19.53;88.87
6833;BME280;3454;42.654;23.378;2022-09-09T06:14:00;94813.75;;;19.60;88.40
6833;BME280;3454;42.654;23.378;2022-09-09T06:16:27;94824.47;;;19.57;87.97
6833;BME280;3454;42.654;23.378;2022-09-09T06:18:54;94790.59;;;19.45;89.09
6833;BME280;3454;42.654;23.378;2022-09-09T06:21:22;94797.25;;;19.54;88.43
6833;BME280;3454;42.654;23.378;2022-09-09T06:23:48;94801.88;;;19.59;87.75
6833;BME280;3454;42.654;23.378;2022-09-09T06:28:46;94812.19;;;19.59;87.11
6833;BME280;3454;42.654;23.378;2022-09-09T06:31:14;94816.81;;;19.63;87.15
6833;BME280;3454;42.654;23.378;2022-09-09T06:33:43;94822.19;;;19.68;86.40
6833;BME280;3454;42.654;23.378;2022-09-09T06:36:29;94825.56;;;19.83;86.26
6833;BME280;3454;42.654;23.378;2022-09-09T06:38:56;94805.44;;;19.93;86.21
6833;BME280;3454;42.654;23.378;2022-09-09T06:41:24;94820.72;;;19.95;85.18
6833;BME280;3454;42.654;23.378;2022-09-09T06:43:53;94819.91;;;19.94;85.42
6833;BME280;3454;42.654;23.378;2022-09-09T06:46:27;94835.16;;;20.10;84.33
6833;BME280;3454;42.654;23.378;2022-09-09T06:48:54;94845.56;;;20.32;83.46
6833;BME280;3454;42.654;23.378;2022-09-09T06:51:27;94843.94;;;20.52;83.11
6833;BME280;3454;42.654;23.378;2022-09-09T06:53:56;94873.22;;;20.38;81.15
6833;BME280;3454;42.654;23.378;2022-09-09T06:56:25;94891.66;;;20.35;80.30
6833;BME280;3454;42.654;23.378;2022-09-09T06:58:54;94912.81;;;20.45;79.26
6833;BME280;3454;42.654;23.378;2022-09-09T07:01:34;94920.66;;;20.51;78.42
6833;BME280;3454;42.654;23.378;2022-09-09T07:04:07;94930.63;;;20.75;77.72
6833;BME280;3454;42.654;23.378;2022-09-09T07:06:39;94923.97;;;20.87;77.51
6833;BME280;3454;42.654;23.378;2022-09-09T07:09:09;94950.00;;;20.86;76.10
6833;BME280;3454;42.654;23.378;2022-09-09T07:12:01;94953.69;;;21.19;75.42
6833;BME280;3454;42.654;23.378;2022-09-09T07:14:27;94984.69;;;21.40;73.13
6833;BME280;3454;42.654;23.378;2022-09-09T07:16:52;94947.16;;;21.23;74.42
6833;BME280;3454;42.654;23.378;2022-09-09T07:19:18;94969.53;;;21.10;72.83
6833;BME280;3454;42.654;23.378;2022-09-09T07:21:43;94962.44;;;21.18;73.57
6833;BME280;3454;42.654;23.378;2022-09-09T07:24:10;94975.59;;;21.23;72.13
6833;BME280;3454;42.654;23.378;2022-09-09T07:26:37;94959.81;;;21.39;73.12
6833;BME280;3454;42.654;23.378;2022-09-09T07:29:03;94976.31;;;21.66;71.44
6833;BME280;3454;42.654;23.378;2022-09-09T07:31:34;94979.25;;;21.84;70.90
6833;BME280;3454;42.654;23.378;2022-09-09T07:34:02;94996.59;;;21.90;69.15
6833;BME280;3454;42.654;23.378;2022-09-09T07:36:30;94979.06;;;22.20;69.99
6833;BME280;3454;42.654;23.378;2022-09-09T07:38:58;94941.59;;;22.29;70.19
6833;BME280;3454;42.654;23.378;2022-09-09T07:41:26;94955.00;;;22.39;69.94
6833;BME280;3454;42.654;23.378;2022-09-09T07:43:52;94995.91;;;22.56;68.39
6833;BME280;3454;42.654;23.378;2022-09-09T07:46:25;94994.38;;;22.69;68.54
6833;BME280;3454;42.654;23.378;2022-09-09T07:48:56;95018.22;;;22.98;67.10
6833;BME280;3454;42.654;23.378;2022-09-09T07:51:27;95057.53;;;23.08;64.84
6833;BME280;3454;42.654;23.378;2022-09-09T07:53:58;95065.34;;;23.28;64.26
6833;BME280;3454;42.654;23.378;2022-09-09T07:56:26;95065.78;;;23.38;63.17
6833;BME280;3454;42.654;23.378;2022-09-09T07:58:54;95058.63;;;23.53;63.19
6833;BME280;3454;42.654;23.378;2022-09-09T08:03:47;95062.41;;;23.96;61.81
6833;BME280;3454;42.654;23.378;2022-09-09T08:06:17;95076.41;;;23.89;60.87
6833;BME280;3454;42.654;23.378;2022-09-09T08:08:43;95060.00;;;23.82;61.50
6833;BME280;3454;42.654;23.378;2022-09-09T08:13:38;95042.00;;;23.28;61.59
6833;BME280;3454;42.654;23.378;2022-09-09T08:16:08;95029.19;;;23.00;62.22
6833;BME280;3454;42.654;23.378;2022-09-09T08:18:35;95006.03;;;23.05;63.05
6833;BME280;3454;42.654;23.378;2022-09-09T08:21:08;95014.88;;;23.44;62.10
6833;BME280;3454;42.654;23.378;2022-09-09T08:23:38;95018.09;;;23.59;62.26
6833;BME280;3454;42.654;23.378;2022-09-09T08:26:06;95030.41;;;23.96;61.39
6833;BME280;3454;42.654;23.378;2022-09-09T08:28:32;95031.56;;;24.26;61.46
6833;BME280;3454;42.654;23.378;2022-09-09T08:31:05;95049.56;;;24.34;60.95
6833;BME280;3454;42.654;23.378;2022-09-09T08:33:32;95079.53;;;24.37;59.29
6833;BME280;3454;42.654;23.378;2022-09-09T08:35:58;95086.56;;;24.23;58.36
6833;BME280;3454;42.654;23.378;2022-09-09T08:38:24;95065.03;;;24.09;59.17
6833;BME280;3454;42.654;23.378;2022-09-09T08:40:52;95068.56;;;24.28;59.00
6833;BME280;3454;42.654;23.378;2022-09-09T08:43:20;95045.16;;;24.28;60.20
6833;BME280;3454;42.654;23.378;2022-09-09T08:45:56;95020.81;;;24.23;60.75
6833;BME280;3454;42.654;23.378;2022-09-09T08:51:13;94982.13;;;24.46;62.42
6833;BME280;3454;42.654;23.378;2022-09-09T08:53:44;94967.63;;;24.69;62.75
6833;BME280;3454;42.654;23.378;2022-09-09T08:56:19;94971.16;;;24.88;62.65
6833;BME280;3454;42.654;23.378;2022-09-09T08:58:54;95005.53;;;24.96;61.04
6833;BME280;3454;42.654;23.378;2022-09-09T09:09:21;95050.78;;;25.58;58.84
6833;BME280;3454;42.654;23.378;2022-09-09T09:12:06;95099.22;;;25.90;57.10
6833;BME280;3454;42.654;23.378;2022-09-09T09:14:41;95080.13;;;25.96;57.07
6833;BME280;3454;42.654;23.378;2022-09-09T09:17:18;95056.97;;;26.06;57.91
6833;BME280;3454;42.654;23.378;2022-09-09T09:19:45;95145.44;;;26.69;54.68
6833;BME280;3454;42.654;23.378;2022-09-09T09:24:53;95176.53;;;26.52;52.55
6833;BME280;3454;42.654;23.378;2022-09-09T09:27:33;95147.88;;;26.27;52.66
6833;BME280;3454;42.654;23.378;2022-09-09T09:30:21;95097.16;;;25.99;54.05
6833;BME280;3454;42.654;23.378;2022-09-09T09:32:54;95116.13;;;25.81;54.01
6833;BME280;3454;42.654;23.378;2022-09-09T09:35:21;95099.44;;;25.57;54.57
6833;BME280;3454;42.654;23.378;2022-09-09T09:37:47;95104.03;;;25.62;54.18
6833;BME280;3454;42.654;23.378;2022-09-09T09:40:18;95056.66;;;25.71;55.11
6833;BME280;3454;42.654;23.378;2022-09-09T09:43:03;95065.47;;;26.02;55.24
6833;BME280;3454;42.654;23.378;2022-09-09T09:45:40;95073.47;;;26.25;54.73
6833;BME280;3454;42.654;23.378;2022-09-09T09:48:10;95108.16;;;26.86;53.05
6833;BME280;3454;42.654;23.378;2022-09-09T09:50:49;95134.44;;;27.21;51.94
6833;BME280;3454;42.654;23.378;2022-09-09T09:53:26;95156.13;;;27.21;50.88
6833;BME280;3454;42.654;23.378;2022-09-09T09:58:31;95058.19;;;26.83;53.73
6833;BME280;3454;42.654;23.378;2022-09-09T10:01:00;95063.91;;;26.91;53.46
6833;BME280;3454;42.654;23.378;2022-09-09T10:03:28;95064.25;;;26.95;53.28
6833;BME280;3454;42.654;23.378;2022-09-09T10:05:54;95019.78;;;26.90;54.69
6833;BME280;3454;42.654;23.378;2022-09-09T10:08:25;94999.97;;;27.12;55.83
6833;BME280;3454;42.654;23.378;2022-09-09T10:19:04;95051.22;;;26.95;54.28
6833;BME280;3454;42.654;23.378;2022-09-09T10:27:04;94996.81;;;25.90;56.23
6833;BME280;3454;42.654;23.378;2022-09-09T10:40:38;94979.38;;;25.65;56.60
6833;BME280;3454;42.654;23.378;2022-09-09T10:43:47;94941.38;;;25.58;57.75
6833;BME280;3454;42.654;23.378;2022-09-09T10:51:23;94947.88;;;25.24;58.40
6833;BME280;3454;42.654;23.378;2022-09-09T10:56:34;94942.06;;;25.22;58.30
6833;BME280;3454;42.654;23.378;2022-09-09T10:59:07;94924.25;;;25.19;59.04
6833;BME280;3454;42.654;23.378;2022-09-09T11:01:46;94889.38;;;25.27;60.26
6833;BME280;3454;42.654;23.378;2022-09-09T11:04:24;94876.38;;;25.27;60.55
6833;BME280;3454;42.654;23.378;2022-09-09T11:06:54;94910.75;;;25.11;59.78
6833;BME280;3454;42.654;23.378;2022-09-09T11:09:28;94927.94;;;25.12;59.19
6833;BME280;3454;42.654;23.378;2022-09-09T11:11:58;94894.84;;;24.94;60.36
6833;BME280;3454;42.654;23.378;2022-09-09T11:14:32;94901.13;;;24.86;60.06
6833;BME280;3454;42.654;23.378;2022-09-09T11:17:10;94877.53;;;24.81;61.16
6833;BME280;3454;42.654;23.378;2022-09-09T11:19:40;94891.75;;;24.79;60.84
6833;BME280;3454;42.654;23.378;2022-09-09T11:25:08;94884.59;;;24.74;60.50
6833;BME280;3454;42.654;23.378;2022-09-09T11:28:34;94895.13;;;25.11;59.84
6833;BME280;3454;42.654;23.378;2022-09-09T11:44:38;94814.75;;;25.21;62.13
6833;BME280;3454;42.654;23.378;2022-09-09T11:47:19;94840.63;;;25.34;61.04
6833;BME280;3454;42.654;23.378;2022-09-09T11:49:45;94824.53;;;25.43;61.07
6833;BME280;3454;42.654;23.378;2022-09-09T11:54:54;94773.31;;;25.55;62.04
6833;BME280;3454;42.654;23.378;2022-09-09T11:57:31;94765.03;;;25.65;62.04
6833;BME280;3454;42.654;23.378;2022-09-09T11:59:57;94787.41;;;25.84;61.52
6833;BME280;3454;42.654;23.378;2022-09-09T12:02:26;94797.16;;;25.89;61.49
6833;BME280;3454;42.654;23.378;2022-09-09T12:05:02;94809.19;;;25.71;61.03
6833;BME280;3454;42.654;23.378;2022-09-09T12:10:22;94813.44;;;25.84;61.14
6833;BME280;3454;42.654;23.378;2022-09-09T12:12:50;94800.69;;;26.12;61.40
6833;BME280;3454;42.654;23.378;2022-09-09T12:17:46;94847.34;;;26.32;59.56
6833;BME280;3454;42.654;23.378;2022-09-09T12:33:40;94902.09;;;27.03;56.82
6833;BME280;3454;42.654;23.378;2022-09-09T12:36:16;94893.41;;;27.32;56.33
6833;BME280;3454;42.654;23.378;2022-09-09T12:38:44;94913.66;;;27.48;55.15
6833;BME280;3454;42.654;23.378;2022-09-09T12:41:24;94920.13;;;27.34;55.20
6833;BME280;3454;42.654;23.378;2022-09-09T12:43:50;94903.84;;;27.32;55.31
6833;BME280;3454;42.654;23.378;2022-09-09T12:46:40;94851.63;;;27.09;57.08
6833;BME280;3454;42.654;23.378;2022-09-09T12:49:35;94836.97;;;27.08;57.52
6833;BME280;3454;42.654;23.378;2022-09-09T12:52:12;94841.75;;;27.11;57.75
6833;BME280;3454;42.654;23.378;2022-09-09T12:54:44;94834.69;;;27.11;58.54
6833;BME280;3454;42.654;23.378;2022-09-09T12:57:12;94826.19;;;27.16;58.31
6833;BME280;3454;42.654;23.378;2022-09-09T12:59:43;94823.81;;;27.26;58.20
6833;BME280;3454;42.654;23.378;2022-09-09T13:02:22;94902.06;;;27.67;55.31
6833;BME280;3454;42.654;23.378;2022-09-09T13:04:48;94905.19;;;28.15;54.83
6833;BME280;3454;42.654;23.378;2022-09-09T13:07:16;94949.38;;;28.40;53.38
6833;BME280;3454;42.654;23.378;2022-09-09T13:09:42;94911.75;;;28.30;54.57
6833;BME280;3454;42.654;23.378;2022-09-09T13:12:16;94950.50;;;28.33;53.15
6833;BME280;3454;42.654;23.378;2022-09-09T13:14:45;94905.06;;;28.50;54.01
6833;BME280;3454;42.654;23.378;2022-09-09T13:17:19;94942.09;;;28.31;53.04
6833;BME280;3454;42.654;23.378;2022-09-09T13:19:46;94934.53;;;28.17;52.81
6833;BME280;3454;42.654;23.378;2022-09-09T13:22:34;94856.25;;;27.99;56.09
6833;BME280;3454;42.654;23.378;2022-09-09T13:25:19;94892.03;;;27.99;54.53
6833;BME280;3454;42.654;23.378;2022-09-09T13:28:01;94862.81;;;28.02;55.33
6833;BME280;3454;42.654;23.378;2022-09-09T13:30:32;94864.09;;;28.28;54.75
6833;BME280;3454;42.654;23.378;2022-09-09T13:36:04;94839.41;;;28.52;56.11
6833;BME280;3454;42.654;23.378;2022-09-09T13:38:40;94896.72;;;28.65;53.90
6833;BME280;3454;42.654;23.378;2022-09-09T13:41:08;94888.81;;;28.48;53.95
6833;BME280;3454;42.654;23.378;2022-09-09T13:43:45;94853.25;;;28.07;55.04
6833;BME280;3454;42.654;23.378;2022-09-09T13:48:57;94768.50;;;27.52;57.83
6833;BME280;3454;42.654;23.378;2022-09-09T13:51:42;94767.03;;;27.45;57.60
6833;BME280;3454;42.654;23.378;2022-09-09T13:54:11;94724.00;;;27.35;58.92
6833;BME280;3454;42.654;23.378;2022-09-09T13:56:38;94739.09;;;27.45;58.42
6833;BME280;3454;42.654;23.378;2022-09-09T13:59:06;94759.59;;;27.65;57.88
6833;BME280;3454;42.654;23.378;2022-09-09T14:01:34;94726.16;;;27.38;58.99
6833;BME280;3454;42.654;23.378;2022-09-09T14:04:00;94745.19;;;27.62;58.91
6833;BME280;3454;42.654;23.378;2022-09-09T14:06:26;94741.94;;;27.72;58.45
6833;BME280;3454;42.654;23.378;2022-09-09T14:08:52;94771.47;;;27.95;57.56
6833;BME280;3454;42.654;23.378;2022-09-09T14:11:19;94821.91;;;28.24;55.31
6833;BME280;3454;42.654;23.378;2022-09-09T14:13:47;94808.22;;;28.34;56.33
6833;BME280;3454;42.654;23.378;2022-09-09T14:16:15;94826.97;;;28.42;55.08
6833;BME280;3454;42.654;23.378;2022-09-09T14:18:40;94831.47;;;28.58;54.83
6833;BME280;3454;42.654;23.378;2022-09-09T14:21:06;94861.59;;;28.77;54.02
6833;BME280;3454;42.654;23.378;2022-09-09T14:23:32;94846.75;;;28.83;54.63
6833;BME280;3454;42.654;23.378;2022-09-09T14:25:57;94838.81;;;28.61;54.00
6833;BME280;3454;42.654;23.378;2022-09-09T14:28:23;94809.38;;;28.54;55.37
6833;BME280;3454;42.654;23.378;2022-09-09T14:30:59;94791.31;;;28.24;55.71
6833;BME280;3454;42.654;23.378;2022-09-09T14:33:25;94778.88;;;28.15;55.90
6833;BME280;3454;42.654;23.378;2022-09-09T14:35:56;94720.53;;;27.86;58.00
6833;BME280;3454;42.654;23.378;2022-09-09T14:38:22;94717.59;;;27.55;58.42
6833;BME280;3454;42.654;23.378;2022-09-09T14:40:47;94713.06;;;27.50;58.83
6833;BME280;3454;42.654;23.378;2022-09-09T14:43:13;94714.00;;;27.44;59.03
6833;BME280;3454;42.654;23.378;2022-09-09T14:45:39;94690.88;;;27.24;59.33
6833;BME280;3454;42.654;23.378;2022-09-09T14:48:04;94683.28;;;27.23;60.03
6833;BME280;3454;42.654;23.378;2022-09-09T14:50:30;94687.78;;;27.27;59.47
6833;BME280;3454;42.654;23.378;2022-09-09T14:52:55;94679.44;;;27.02;59.98
6833;BME280;3454;42.654;23.378;2022-09-09T14:55:21;94659.50;;;26.61;61.09
6833;BME280;3454;42.654;23.378;2022-09-09T14:57:46;94632.06;;;26.47;61.90
6833;BME280;3454;42.654;23.378;2022-09-09T15:00:12;94658.59;;;26.56;60.90
6833;BME280;3454;42.654;23.378;2022-09-09T15:02:38;94657.03;;;26.43;60.80
6833;BME280;3454;42.654;23.378;2022-09-09T15:05:04;94620.63;;;26.14;62.35
6833;BME280;3454;42.654;23.378;2022-09-09T15:07:29;94611.88;;;26.08;62.84
6833;BME280;3454;42.654;23.378;2022-09-09T15:09:57;94598.47;;;25.93;63.66
6833;BME280;3454;42.654;23.378;2022-09-09T15:12:24;94589.06;;;25.80;64.18
6833;BME280;3454;42.654;23.378;2022-09-09T15:14:49;94582.63;;;25.83;64.77
6833;BME280;3454;42.654;23.378;2022-09-09T15:17:16;94573.31;;;25.75;65.42
6833;BME280;3454;42.654;23.378;2022-09-09T15:19:42;94589.72;;;25.76;64.79
6833;BME280;3454;42.654;23.378;2022-09-09T15:22:08;94594.00;;;25.59;64.61
6833;BME280;3454;42.654;23.378;2022-09-09T15:24:34;94593.22;;;25.70;64.79
6833;BME280;3454;42.654;23.378;2022-09-09T15:27:01;94603.69;;;25.82;64.49
6833;BME280;3454;42.654;23.378;2022-09-09T15:29:27;94615.69;;;25.94;64.21
6833;BME280;3454;42.654;23.378;2022-09-09T15:31:53;94617.22;;;26.13;63.70
6833;BME280;3454;42.654;23.378;2022-09-09T15:34:19;94641.13;;;26.45;62.77
6833;BME280;3454;42.654;23.378;2022-09-09T15:36:45;94664.06;;;26.78;61.91
6833;BME280;3454;42.654;23.378;2022-09-09T15:39:12;94696.91;;;27.02;60.52
6833;BME280;3454;42.654;23.378;2022-09-09T15:41:44;94720.28;;;27.20;59.39
6833;BME280;3454;42.654;23.378;2022-09-09T15:44:10;94695.66;;;27.16;60.22